Time;durP1;ratioP1;P1;durP2;ratioP2;P2;SDS_P1;SDS_P2;PMS_P1;PMS_P2;Temp;Humidity;BMP_temperature;BMP_pressure;BME280_temperature;BME280_humidity;BME280_pressure;Samples;Min_cycle;Max_cycle;Signal;HPM_P1;HPM_P2
2022/03/13 00:00:54;;;;;;;362.23;142.30;;;-3.60;99.90;;;;;;5076598;28;20385;-52
2022/03/13 00:03:21;;;;;;;366.05;139.80;;;-3.50;99.90;;;;;;5076786;28;20116;-52
2022/03/13 00:05:50;;;;;;;342.95;134.77;;;-3.60;99.90;;;;;;5076468;28;20028;-52
2022/03/13 00:08:25;;;;;;;317.13;125.18;;;-3.70;99.90;;;;;;5076497;28;20036;-52
2022/03/13 00:11:01;;;;;;;306.77;119.32;;;-3.70;99.90;;;;;;5076230;28;20077;-52
2022/03/13 00:13:32;;;;;;;295.83;116.72;;;-3.70;99.90;;;;;;5056280;28;20529;-52
2022/03/13 00:16:03;;;;;;;290.20;113.82;;;-3.70;99.90;;;;;;5061255;28;20466;-52
2022/03/13 00:18:32;;;;;;;297.92;114.63;;;-3.70;99.90;;;;;;5088676;28;20048;-52
2022/03/13 00:21:02;;;;;;;301.40;117.60;;;-3.80;99.90;;;;;;5096504;28;20024;-52
2022/03/13 00:23:32;;;;;;;448.48;146.20;;;-3.90;99.90;;;;;;5096648;28;20024;-52
2022/03/13 00:25:58;;;;;;;678.78;211.75;;;-4.00;99.90;;;;;;5096522;28;20043;-52
2022/03/13 00:28:24;;;;;;;666.22;211.20;;;-4.00;99.90;;;;;;5096202;28;20393;-53
2022/03/13 00:30:51;;;;;;;386.75;131.75;;;-4.00;99.90;;;;;;5096341;28;20040;-52
2022/03/13 00:33:17;;;;;;;310.95;116.22;;;-4.00;99.90;;;;;;5096046;28;20061;-52
2022/03/13 00:35:43;;;;;;;316.73;120.47;;;-4.00;99.90;;;;;;5096096;28;20108;-52
2022/03/13 00:38:09;;;;;;;323.45;120.32;;;-4.10;99.90;;;;;;5096240;28;20035;-52
2022/03/13 00:40:36;;;;;;;358.58;128.68;;;-4.00;99.90;;;;;;5095853;28;20095;-52
2022/03/13 00:43:02;;;;;;;356.13;122.97;;;-4.00;99.90;;;;;;5093028;28;20103;-52
2022/03/13 00:45:29;;;;;;;370.23;130.20;;;-4.10;99.90;;;;;;5096106;28;20470;-52
2022/03/13 00:47:56;;;;;;;353.05;127.82;;;-4.20;99.90;;;;;;5077729;28;20101;-52
2022/03/13 00:50:22;;;;;;;339.63;126.82;;;-4.20;99.90;;;;;;5095629;28;20027;-52
2022/03/13 00:52:49;;;;;;;312.58;118.70;;;-4.10;99.90;;;;;;5095960;28;20032;-52
2022/03/13 00:55:15;;;;;;;281.88;111.32;;;-4.10;99.90;;;;;;5095500;28;20047;-52
2022/03/13 00:57:43;;;;;;;330.42;122.35;;;-4.10;99.90;;;;;;5095794;28;20028;-52
2022/03/13 01:00:13;;;;;;;322.00;117.45;;;-4.20;99.90;;;;;;5095573;28;20122;-52
2022/03/13 01:02:41;;;;;;;332.42;123.15;;;-4.00;99.90;;;;;;5095224;28;20036;-52
2022/03/13 01:05:09;;;;;;;356.73;127.35;;;-4.00;99.90;;;;;;5095447;28;20113;-52
2022/03/13 01:07:39;;;;;;;364.52;131.55;;;-4.10;99.90;;;;;;5095410;28;20034;-52
2022/03/13 01:10:07;;;;;;;348.20;126.20;;;-4.20;99.90;;;;;;5084593;28;20024;-52
2022/03/13 01:12:34;;;;;;;357.10;131.73;;;-4.20;99.90;;;;;;5074984;28;20028;-52
2022/03/13 01:15:00;;;;;;;522.90;189.52;;;-4.30;99.90;;;;;;5075102;28;20640;-52
2022/03/13 01:17:26;;;;;;;679.22;254.70;;;-4.40;99.90;;;;;;5074928;28;20120;-52
2022/03/13 01:19:52;;;;;;;634.35;226.98;;;-4.30;99.90;;;;;;5074936;28;20024;-52
2022/03/13 01:22:17;;;;;;;723.15;260.30;;;-4.40;99.90;;;;;;5074716;28;20035;-52
2022/03/13 01:24:45;;;;;;;631.00;220.77;;;-4.40;99.90;;;;;;5075039;28;20024;-52
2022/03/13 01:27:13;;;;;;;574.38;201.25;;;-4.40;99.90;;;;;;5074749;28;20025;-53
2022/03/13 01:29:40;;;;;;;779.45;272.38;;;-4.50;99.90;;;;;;5074629;28;20028;-52
2022/03/13 01:32:09;;;;;;;968.88;329.00;;;-4.40;99.90;;;;;;5074823;28;20036;-52
2022/03/13 01:34:41;;;;;;;865.00;298.38;;;-4.30;99.90;;;;;;5074535;28;20029;-52
2022/03/13 01:37:14;;;;;;;715.28;237.00;;;-4.30;99.90;;;;;;5074707;28;20154;-52
2022/03/13 01:39:42;;;;;;;593.53;192.10;;;-4.30;99.90;;;;;;5074608;28;20097;-52
2022/03/13 01:42:08;;;;;;;545.30;174.85;;;-4.40;99.90;;;;;;5074653;28;20032;-52
2022/03/13 01:44:34;;;;;;;576.47;192.00;;;-4.50;99.90;;;;;;5074492;28;20039;-53
2022/03/13 01:47:03;;;;;;;628.92;211.65;;;-4.50;99.90;;;;;;5074631;28;20036;-52
2022/03/13 01:49:29;;;;;;;607.17;205.63;;;-4.50;99.90;;;;;;5074506;28;20032;-52
2022/03/13 01:51:57;;;;;;;477.23;159.95;;;-4.60;99.90;;;;;;5074509;28;20471;-52
2022/03/13 01:54:23;;;;;;;469.17;157.63;;;-4.60;99.90;;;;;;5074450;28;20051;-52
2022/03/13 01:56:49;;;;;;;417.48;146.90;;;-4.60;99.90;;;;;;5074483;28;20036;-52
2022/03/13 02:00:06;;;;;;;442.70;152.30;;;-4.70;99.90;;;;;;5074689;28;20467;-52
2022/03/13 02:02:45;;;;;;;354.50;126.80;;;-4.60;99.90;;;;;;5074523;28;20088;-52
2022/03/13 02:05:27;;;;;;;366.95;134.65;;;-4.70;99.90;;;;;;5074307;28;20031;-52
2022/03/13 02:07:54;;;;;;;332.95;120.40;;;-4.70;99.90;;;;;;5074292;28;20189;-52
2022/03/13 02:10:21;;;;;;;295.83;113.68;;;-4.80;99.90;;;;;;5074466;28;20032;-52
2022/03/13 02:12:47;;;;;;;459.15;154.82;;;-4.80;99.90;;;;;;5074528;28;20036;-52
2022/03/13 02:15:13;;;;;;;517.63;160.93;;;-4.90;99.90;;;;;;5074306;28;20024;-52
2022/03/13 02:17:39;;;;;;;601.75;200.07;;;-4.80;99.90;;;;;;5079559;28;20466;-52
2022/03/13 02:20:15;;;;;;;349.27;124.63;;;-4.80;99.90;;;;;;5080878;28;20024;-52
2022/03/13 02:22:46;;;;;;;441.50;144.43;;;-4.80;99.90;;;;;;5080831;28;20086;-52
2022/03/13 02:25:31;;;;;;;510.15;161.02;;;-4.80;99.90;;;;;;5081092;28;20043;-52
2022/03/13 02:27:58;;;;;;;390.23;136.50;;;-4.90;99.90;;;;;;5081014;28;20109;-52
2022/03/13 02:30:27;;;;;;;341.58;127.32;;;-4.80;99.90;;;;;;5080754;28;20055;-52
2022/03/13 02:32:54;;;;;;;526.65;176.82;;;-4.80;99.90;;;;;;5080842;28;20199;-52
2022/03/13 02:35:20;;;;;;;459.00;151.95;;;-4.70;99.90;;;;;;5080627;28;20030;-52
2022/03/13 02:37:48;;;;;;;346.70;124.60;;;-4.70;99.90;;;;;;5080871;28;20119;-52
2022/03/13 02:40:19;;;;;;;306.52;115.20;;;-4.70;99.90;;;;;;5080818;28;20498;-52
2022/03/13 02:42:45;;;;;;;319.60;115.72;;;-4.70;99.90;;;;;;5080698;28;20031;-52
2022/03/13 02:45:11;;;;;;;293.75;112.00;;;-4.80;99.90;;;;;;5080779;28;20021;-52
2022/03/13 02:47:37;;;;;;;289.05;109.05;;;-4.80;99.90;;;;;;5080360;28;20035;-52
2022/03/13 02:50:05;;;;;;;295.45;111.72;;;-4.80;99.90;;;;;;5080700;28;20105;-52
2022/03/13 02:52:31;;;;;;;301.10;111.93;;;-4.80;99.90;;;;;;5080664;28;20108;-52
2022/03/13 02:54:57;;;;;;;280.50;106.95;;;-4.80;99.90;;;;;;5080427;28;20067;-52
2022/03/13 02:57:23;;;;;;;259.67;102.38;;;-4.80;99.90;;;;;;5080444;28;20024;-52
2022/03/13 02:59:49;;;;;;;259.55;103.57;;;-4.80;99.90;;;;;;5080668;28;20082;-52
2022/03/13 03:02:17;;;;;;;251.30;100.22;;;-4.90;99.90;;;;;;5080412;28;20059;-52
2022/03/13 03:04:44;;;;;;;249.10;95.90;;;-4.90;99.90;;;;;;5080714;28;20025;-52
2022/03/13 03:07:10;;;;;;;256.27;102.30;;;-4.90;99.90;;;;;;5080398;28;20101;-52
2022/03/13 03:09:36;;;;;;;234.80;91.65;;;-5.00;99.90;;;;;;5080216;28;20578;-52
2022/03/13 03:12:04;;;;;;;223.82;89.18;;;-5.00;99.90;;;;;;5080359;28;20120;-52
2022/03/13 03:14:32;;;;;;;238.45;92.82;;;-5.10;99.90;;;;;;5080764;28;20453;-52
2022/03/13 03:16:59;;;;;;;213.73;88.90;;;-5.10;99.90;;;;;;5080072;28;20410;-52
2022/03/13 03:19:26;;;;;;;206.05;83.55;;;-5.10;99.90;;;;;;5080367;28;20024;-52
2022/03/13 03:21:52;;;;;;;204.82;84.72;;;-5.10;99.90;;;;;;5080422;28;20024;-52
2022/03/13 03:24:22;;;;;;;206.20;85.32;;;-5.10;99.90;;;;;;5080230;28;20086;-52
2022/03/13 03:26:48;;;;;;;235.77;90.72;;;-5.10;99.90;;;;;;5080373;28;20409;-52
2022/03/13 03:29:15;;;;;;;269.92;99.40;;;-5.00;99.90;;;;;;5076411;28;20086;-52
2022/03/13 03:31:46;;;;;;;280.17;103.72;;;-5.10;99.90;;;;;;5076621;28;20068;-52
2022/03/13 03:34:17;;;;;;;264.92;98.30;;;-5.20;99.90;;;;;;5077202;28;20371;-52
2022/03/13 03:36:53;;;;;;;193.95;78.50;;;-5.20;99.90;;;;;;5076945;28;20063;-52
2022/03/13 03:39:20;;;;;;;180.55;75.18;;;-5.20;99.90;;;;;;5076945;28;20028;-52
2022/03/13 03:41:48;;;;;;;175.98;69.45;;;-5.30;99.90;;;;;;5076957;28;20071;-52
2022/03/13 03:44:15;;;;;;;177.80;72.40;;;-5.20;99.90;;;;;;5076738;28;20037;-52
2022/03/13 03:46:43;;;;;;;180.30;73.22;;;-5.20;99.90;;;;;;5076887;28;20036;-52
2022/03/13 03:49:09;;;;;;;177.93;72.22;;;-5.10;99.90;;;;;;5076808;28;20025;-52
2022/03/13 03:51:36;;;;;;;190.10;73.10;;;-5.20;99.90;;;;;;5077108;28;20029;-52
2022/03/13 03:54:03;;;;;;;231.60;89.35;;;-5.30;99.90;;;;;;5076828;28;20021;-52
2022/03/13 03:56:29;;;;;;;207.63;80.18;;;-5.20;99.90;;;;;;5076534;28;20024;-52
2022/03/13 03:58:56;;;;;;;203.02;80.90;;;-5.20;99.90;;;;;;5076697;28;20024;-52
2022/03/13 04:01:22;;;;;;;197.93;77.80;;;-5.10;99.90;;;;;;5076624;28;20039;-52
2022/03/13 04:03:48;;;;;;;189.38;75.65;;;-5.20;99.90;;;;;;5076439;28;20043;-52
2022/03/13 04:06:18;;;;;;;193.38;76.18;;;-5.20;99.90;;;;;;5076510;28;20028;-52
2022/03/13 04:08:45;;;;;;;182.80;74.10;;;-5.10;99.90;;;;;;5076547;28;20039;-52
2022/03/13 04:11:11;;;;;;;178.15;69.57;;;-5.30;99.90;;;;;;5076064;28;20040;-52
2022/03/13 04:13:38;;;;;;;183.52;69.18;;;-5.30;99.90;;;;;;5076267;28;20024;-52
2022/03/13 04:16:08;;;;;;;168.57;67.72;;;-5.30;99.90;;;;;;5076258;28;20031;-52
2022/03/13 04:18:36;;;;;;;172.05;68.93;;;-5.30;99.90;;;;;;5076053;28;20033;-52
2022/03/13 04:21:03;;;;;;;172.20;70.00;;;-5.40;99.90;;;;;;5076166;28;20055;-52
2022/03/13 04:23:31;;;;;;;180.32;72.45;;;-5.50;99.90;;;;;;5076169;28;20057;-52
2022/03/13 04:25:57;;;;;;;176.93;70.93;;;-5.50;99.90;;;;;;5076124;28;20367;-52
2022/03/13 04:28:23;;;;;;;169.30;68.60;;;-5.50;99.90;;;;;;5075932;28;20052;-52
2022/03/13 04:30:52;;;;;;;163.13;66.68;;;-5.40;99.90;;;;;;5075945;28;20043;-52
2022/03/13 04:33:19;;;;;;;155.18;67.35;;;-5.40;99.90;;;;;;5075983;28;20094;-52
2022/03/13 04:35:46;;;;;;;152.43;63.00;;;-5.50;99.90;;;;;;5075922;28;20039;-52
2022/03/13 04:38:12;;;;;;;157.73;64.05;;;-5.50;99.90;;;;;;5075762;28;20028;-52
2022/03/13 04:40:38;;;;;;;164.90;66.43;;;-5.50;99.90;;;;;;5075710;28;20064;-52
2022/03/13 04:43:04;;;;;;;157.98;63.30;;;-5.50;99.90;;;;;;5075872;28;20039;-52
2022/03/13 04:45:30;;;;;;;153.23;63.33;;;-5.40;99.90;;;;;;5075811;28;20021;-52
2022/03/13 04:47:56;;;;;;;160.40;67.30;;;-5.50;99.90;;;;;;5075732;28;20043;-52
2022/03/13 04:50:22;;;;;;;164.90;64.95;;;-5.40;99.90;;;;;;5075497;28;20102;-52
2022/03/13 04:52:48;;;;;;;149.05;64.00;;;-5.40;99.90;;;;;;5075475;28;20037;-52
2022/03/13 04:55:15;;;;;;;156.98;65.00;;;-5.40;99.90;;;;;;5075529;28;20016;-52
2022/03/13 04:57:41;;;;;;;180.05;77.32;;;-5.40;99.90;;;;;;5075399;28;20024;-52
2022/03/13 05:00:08;;;;;;;175.48;73.53;;;-5.30;99.90;;;;;;5075337;28;20126;-52
2022/03/13 05:02:33;;;;;;;178.68;70.10;;;-5.40;99.90;;;;;;5075155;28;20043;-52
2022/03/13 05:04:59;;;;;;;163.45;68.82;;;-5.50;99.90;;;;;;5075642;28;20029;-52
2022/03/13 05:07:26;;;;;;;162.52;67.43;;;-5.50;99.90;;;;;;5075199;28;20024;-52
2022/03/13 05:09:52;;;;;;;163.80;66.90;;;-5.70;99.90;;;;;;5075086;28;20040;-52
2022/03/13 05:12:21;;;;;;;168.60;71.18;;;-5.70;99.90;;;;;;5074992;28;20386;-52
2022/03/13 05:14:47;;;;;;;164.15;66.38;;;-5.60;99.90;;;;;;5075141;28;20027;-52
2022/03/13 05:17:13;;;;;;;158.52;66.57;;;-5.70;99.90;;;;;;5074960;28;20032;-52
2022/03/13 05:19:39;;;;;;;151.50;66.40;;;-5.70;99.90;;;;;;5075014;28;20107;-52
2022/03/13 05:22:05;;;;;;;152.95;64.28;;;-5.70;99.90;;;;;;5074727;28;20380;-52
2022/03/13 05:24:31;;;;;;;147.82;63.50;;;-5.70;99.90;;;;;;5075088;28;20059;-52
2022/03/13 05:26:57;;;;;;;142.35;62.40;;;-5.40;99.90;;;;;;5074756;28;20032;-53
2022/03/13 05:29:23;;;;;;;129.90;57.15;;;-5.00;99.90;;;;;;5075059;28;20033;-52
2022/03/13 05:31:49;;;;;;;139.57;58.67;;;-4.40;99.90;;;;;;5074573;28;20059;-52
2022/03/13 05:34:15;;;;;;;150.40;60.80;;;-3.90;99.90;;;;;;5074903;28;20081;-52
2022/03/13 05:36:41;;;;;;;165.60;63.45;;;-3.40;99.90;;;;;;5074972;28;20041;-53
2022/03/13 05:39:09;;;;;;;150.25;62.55;;;-2.60;99.90;;;;;;5074605;28;20541;-52
2022/03/13 05:41:40;;;;;;;154.20;64.53;;;-2.10;99.90;;;;;;5074764;28;20370;-52
2022/03/13 05:44:09;;;;;;;154.30;62.35;;;-1.80;99.90;;;;;;5074535;28;20410;-52
2022/03/13 05:46:36;;;;;;;143.05;59.97;;;-1.30;99.90;;;;;;5074525;28;20063;-52
2022/03/13 05:49:03;;;;;;;129.90;54.70;;;-1.00;99.90;;;;;;5074530;28;20028;-52
2022/03/13 05:51:35;;;;;;;130.65;53.50;;;-0.60;99.90;;;;;;5073859;28;20029;-52
2022/03/13 05:54:06;;;;;;;137.55;56.28;;;-0.60;99.90;;;;;;5074758;28;20067;-53
2022/03/13 05:56:32;;;;;;;130.85;56.03;;;-0.70;99.90;;;;;;5074453;28;20025;-53
2022/03/13 05:58:58;;;;;;;136.38;60.20;;;-1.20;99.90;;;;;;5074632;28;20040;-53
2022/03/13 06:01:24;;;;;;;136.52;59.53;;;-1.10;99.90;;;;;;5074260;28;20544;-53
2022/03/13 06:03:50;;;;;;;139.82;59.40;;;-1.20;99.90;;;;;;5074393;28;20029;-52
2022/03/13 06:06:16;;;;;;;141.52;58.20;;;-1.10;99.90;;;;;;5074500;28;20032;-53
2022/03/13 06:08:42;;;;;;;146.23;60.55;;;-1.00;99.90;;;;;;5074322;28;20493;-53
2022/03/13 06:11:08;;;;;;;143.85;60.58;;;-0.70;99.90;;;;;;5074028;28;20478;-52
2022/03/13 06:13:35;;;;;;;149.40;62.88;;;-0.60;99.90;;;;;;5074272;28;20033;-53
2022/03/13 06:16:01;;;;;;;143.45;61.47;;;-0.70;99.90;;;;;;5074112;28;20057;-53
2022/03/13 06:18:27;;;;;;;157.35;65.15;;;-0.60;99.90;;;;;;5074191;28;20033;-53
2022/03/13 06:20:54;;;;;;;158.38;66.65;;;-0.70;99.90;;;;;;5074350;28;20481;-53
2022/03/13 06:23:20;;;;;;;152.85;65.32;;;-0.60;99.90;;;;;;5074143;28;20079;-53
2022/03/13 06:25:46;;;;;;;161.68;67.05;;;-0.70;99.90;;;;;;5074308;28;20033;-53
2022/03/13 06:28:13;;;;;;;158.15;68.00;;;-0.30;99.90;;;;;;5074079;28;20056;-53
2022/03/13 06:30:38;;;;;;;166.55;69.38;;;-0.20;99.90;;;;;;5073959;28;20119;-53
2022/03/13 06:33:04;;;;;;;156.18;69.85;;;0.30;99.90;;;;;;5074091;28;20494;-53
2022/03/13 06:35:32;;;;;;;164.35;72.93;;;0.50;99.90;;;;;;5074149;28;20445;-53
2022/03/13 06:37:58;;;;;;;178.35;76.65;;;0.80;99.90;;;;;;5074387;28;20039;-53
2022/03/13 06:40:25;;;;;;;170.00;72.40;;;0.90;99.30;;;;;;5074078;28;20025;-53
2022/03/13 06:42:56;;;;;;;169.07;73.60;;;1.30;99.10;;;;;;5073935;28;20035;-53
2022/03/13 06:45:22;;;;;;;176.45;79.28;;;1.60;98.20;;;;;;5074065;28;20033;-53
2022/03/13 06:47:49;;;;;;;180.40;80.20;;;1.50;96.70;;;;;;5074060;28;20039;-53
2022/03/13 06:50:17;;;;;;;177.07;78.88;;;1.40;97.00;;;;;;5073774;28;20528;-53
2022/03/13 06:52:48;;;;;;;188.43;81.10;;;1.60;97.60;;;;;;5074262;28;20025;-53
2022/03/13 06:55:15;;;;;;;167.30;77.10;;;1.40;97.20;;;;;;5074203;28;20025;-53
2022/03/13 06:57:42;;;;;;;182.15;78.18;;;1.90;97.00;;;;;;5073655;28;20439;-53
2022/03/13 07:00:10;;;;;;;170.68;80.05;;;2.10;96.20;;;;;;5073860;28;20020;-53
2022/03/13 07:02:36;;;;;;;176.75;79.22;;;2.40;95.40;;;;;;5074790;28;20414;-53
2022/03/13 07:05:02;;;;;;;174.50;78.40;;;2.40;95.40;;;;;;5077539;28;20025;-53
2022/03/13 07:07:28;;;;;;;173.18;76.50;;;2.50;94.80;;;;;;5077554;28;20051;-53
2022/03/13 07:09:57;;;;;;;170.75;77.68;;;2.60;95.80;;;;;;5077403;28;20033;-53
2022/03/13 07:12:25;;;;;;;163.45;76.82;;;2.90;94.70;;;;;;5077248;28;20096;-53
2022/03/13 07:14:55;;;;;;;165.30;75.28;;;3.20;95.10;;;;;;5077531;28;20028;-53
2022/03/13 07:17:21;;;;;;;171.05;75.20;;;3.50;94.00;;;;;;5077243;28;20078;-53
2022/03/13 07:19:47;;;;;;;160.70;70.97;;;3.90;91.30;;;;;;5077130;28;20032;-53
2022/03/13 07:22:15;;;;;;;165.88;74.75;;;4.20;91.20;;;;;;5077392;28;20104;-53
2022/03/13 07:24:43;;;;;;;164.15;73.93;;;3.90;89.60;;;;;;5077176;28;20112;-53
2022/03/13 07:27:09;;;;;;;149.57;68.32;;;3.80;91.60;;;;;;5077146;28;20394;-53
2022/03/13 07:29:35;;;;;;;135.27;62.63;;;4.20;91.00;;;;;;5077147;28;20093;-53
2022/03/13 07:32:02;;;;;;;127.22;61.28;;;4.60;89.60;;;;;;5077031;28;20032;-53
2022/03/13 07:34:28;;;;;;;137.20;62.15;;;5.00;88.90;;;;;;5077092;28;20115;-53
2022/03/13 07:36:55;;;;;;;126.10;59.55;;;5.10;82.10;;;;;;5077074;28;20462;-53
2022/03/13 07:39:24;;;;;;;125.32;57.25;;;5.30;79.60;;;;;;5076990;28;20036;-53
2022/03/13 07:41:51;;;;;;;116.72;54.38;;;5.50;75.20;;;;;;5058981;28;20082;-53
2022/03/13 07:44:17;;;;;;;128.40;58.13;;;5.80;75.80;;;;;;5076910;28;20028;-53
2022/03/13 07:46:43;;;;;;;108.13;51.38;;;5.80;74.30;;;;;;5076704;28;20052;-53
2022/03/13 07:49:10;;;;;;;112.82;54.85;;;6.20;65.90;;;;;;5076714;28;20063;-53
2022/03/13 07:51:37;;;;;;;122.55;55.38;;;6.00;64.80;;;;;;5076632;28;20543;-53
2022/03/13 07:54:03;;;;;;;110.80;52.85;;;6.70;67.60;;;;;;5076554;28;20036;-53
2022/03/13 07:56:29;;;;;;;113.03;54.40;;;6.60;62.30;;;;;;5076856;28;20029;-53
2022/03/13 07:58:56;;;;;;;106.88;54.72;;;6.90;59.60;;;;;;5076649;28;20031;-53
2022/03/13 08:01:22;;;;;;;110.05;54.00;;;7.20;56.80;;;;;;5076479;28;20078;-54
2022/03/13 08:03:51;;;;;;;117.88;56.83;;;7.40;56.10;;;;;;5076613;28;20036;-54
2022/03/13 08:06:17;;;;;;;111.70;55.75;;;7.60;52.80;;;;;;5076388;28;20044;-53
2022/03/13 08:08:43;;;;;;;111.88;56.38;;;7.90;55.40;;;;;;5076432;28;20033;-54
2022/03/13 08:11:09;;;;;;;107.50;53.67;;;7.90;55.30;;;;;;5076074;28;20032;-54
2022/03/13 08:13:34;;;;;;;100.50;51.30;;;8.80;49.60;;;;;;5076307;28;20017;-54
2022/03/13 08:16:00;;;;;;;105.43;51.60;;;8.40;45.90;;;;;;5075694;28;20458;-53
2022/03/13 08:18:28;;;;;;;102.47;51.25;;;8.10;50.20;;;;;;5076032;28;20036;-54
2022/03/13 08:20:54;;;;;;;103.05;54.33;;;8.60;45.90;;;;;;5076532;28;20050;-53
2022/03/13 08:23:19;;;;;;;107.50;52.80;;;8.70;49.40;;;;;;5076147;28;20028;-54
2022/03/13 08:25:45;;;;;;;108.90;56.47;;;9.40;48.00;;;;;;5076211;28;20043;-54
2022/03/13 08:28:11;;;;;;;115.25;57.35;;;9.40;46.70;;;;;;5076051;28;20119;-54
2022/03/13 08:30:37;;;;;;;108.07;56.50;;;9.50;45.80;;;;;;5075616;28;20044;-54
2022/03/13 08:33:05;;;;;;;110.07;57.30;;;9.80;44.10;;;;;;5076035;28;20017;-54
2022/03/13 08:35:31;;;;;;;101.15;52.72;;;10.10;44.20;;;;;;5075873;28;20039;-54
2022/03/13 08:37:58;;;;;;;82.25;45.20;;;10.20;44.70;;;;;;5076078;28;20021;-54
2022/03/13 08:40:25;;;;;;;76.68;43.30;;;10.40;40.20;;;;;;5075895;28;20090;-54
2022/03/13 08:42:54;;;;;;;81.32;42.72;;;10.50;39.10;;;;;;5075729;28;20025;-54
2022/03/13 08:45:21;;;;;;;65.45;36.60;;;11.30;38.20;;;;;;5075643;28;20084;-54
2022/03/13 08:47:47;;;;;;;54.65;29.25;;;11.60;37.00;;;;;;5075727;28;20040;-54
2022/03/13 08:50:14;;;;;;;53.65;29.75;;;10.80;34.90;;;;;;5075637;28;20103;-54
2022/03/13 08:52:40;;;;;;;51.97;28.38;;;10.40;34.10;;;;;;5075782;28;20024;-54
2022/03/13 08:55:08;;;;;;;51.72;27.35;;;10.10;35.40;;;;;;5075437;28;20084;-54
2022/03/13 08:57:35;;;;;;;51.67;28.42;;;10.90;35.90;;;;;;5075455;28;20040;-54
2022/03/13 09:00:01;;;;;;;50.30;27.92;;;11.10;34.30;;;;;;5075461;28;20025;-54
2022/03/13 09:02:27;;;;;;;49.80;28.00;;;11.40;33.60;;;;;;5075417;28;20037;-54
2022/03/13 09:04:53;;;;;;;51.08;27.70;;;11.80;32.90;;;;;;5075220;28;20032;-54
2022/03/13 09:07:19;;;;;;;50.45;26.20;;;11.10;32.80;;;;;;5075209;28;20039;-54
2022/03/13 09:09:46;;;;;;;46.38;25.77;;;11.70;34.00;;;;;;5075204;28;20028;-54
2022/03/13 09:12:13;;;;;;;42.92;23.75;;;11.40;31.50;;;;;;5075143;28;20043;-54
2022/03/13 09:14:39;;;;;;;41.65;22.85;;;12.20;31.40;;;;;;5075465;28;20021;-54
2022/03/13 09:17:05;;;;;;;37.58;21.42;;;12.90;29.80;;;;;;5074981;28;20021;-54
2022/03/13 09:19:32;;;;;;;45.22;23.52;;;12.80;28.50;;;;;;5074904;28;20024;-54
2022/03/13 09:21:58;;;;;;;38.60;24.20;;;13.30;28.60;;;;;;5075109;28;20056;-54
2022/03/13 09:24:23;;;;;;;43.00;24.02;;;13.30;29.00;;;;;;5074926;28;20063;-54
2022/03/13 09:26:49;;;;;;;35.58;20.38;;;13.20;28.80;;;;;;5073874;28;20051;-54
2022/03/13 09:29:15;;;;;;;37.15;19.73;;;13.50;27.80;;;;;;5074953;28;20436;-54
2022/03/13 09:31:41;;;;;;;35.42;20.13;;;12.90;27.70;;;;;;5074659;28;20040;-54
2022/03/13 09:34:08;;;;;;;31.98;18.23;;;12.50;27.60;;;;;;5074829;28;20032;-54
2022/03/13 09:36:36;;;;;;;32.47;19.35;;;13.30;26.60;;;;;;5074848;28;20021;-54
2022/03/13 09:39:04;;;;;;;30.52;18.20;;;12.60;26.20;;;;;;5074852;28;20039;-54
2022/03/13 09:41:31;;;;;;;31.40;18.35;;;11.90;27.30;;;;;;5074590;28;20497;-54
2022/03/13 09:43:57;;;;;;;51.40;29.35;;;13.20;28.30;;;;;;5074570;28;20414;-54
2022/03/13 09:46:23;;;;;;;39.78;24.90;;;13.40;27.00;;;;;;5056352;28;20032;-54
2022/03/13 09:48:52;;;;;;;29.23;17.90;;;14.40;25.40;;;;;;5074583;28;20029;-54
2022/03/13 09:51:18;;;;;;;30.65;17.40;;;14.80;25.20;;;;;;5074497;28;20059;-54
2022/03/13 09:53:44;;;;;;;27.65;16.75;;;15.60;24.90;;;;;;5074754;28;20028;-54
2022/03/13 09:56:10;;;;;;;28.23;15.88;;;15.70;24.40;;;;;;5074291;28;20092;-54
2022/03/13 09:58:36;;;;;;;23.98;15.23;;;15.00;24.10;;;;;;5074759;28;20434;-54
2022/03/13 10:01:02;;;;;;;28.15;16.08;;;15.20;24.20;;;;;;5074709;28;20028;-54
2022/03/13 10:03:28;;;;;;;28.52;15.45;;;16.20;23.50;;;;;;5074477;28;20115;-54
2022/03/13 10:05:56;;;;;;;23.13;13.98;;;15.40;23.00;;;;;;5074460;28;20060;-54
2022/03/13 10:08:31;;;;;;;24.13;14.38;;;15.10;23.30;;;;;;5074280;28;20123;-54
2022/03/13 10:11:02;;;;;;;24.10;12.90;;;14.20;23.00;;;;;;5074192;28;20371;-54
2022/03/13 10:13:37;;;;;;;26.95;12.60;;;14.00;22.90;;;;;;5054298;28;20160;-54
2022/03/13 10:16:05;;;;;;;22.90;13.07;;;14.50;23.20;;;;;;5060386;28;20091;-54
2022/03/13 10:18:31;;;;;;;22.00;11.60;;;13.80;22.50;;;;;;5094465;28;20029;-54
2022/03/13 10:21:09;;;;;;;19.60;11.73;;;14.10;23.20;;;;;;5094503;28;20085;-54
2022/03/13 10:23:36;;;;;;;21.95;13.07;;;14.60;23.30;;;;;;5094742;28;20028;-54
2022/03/13 10:26:04;;;;;;;23.42;13.93;;;15.10;23.50;;;;;;5094583;28;20036;-54
2022/03/13 10:28:33;;;;;;;21.73;12.38;;;15.30;23.10;;;;;;5094410;28;20054;-54
2022/03/13 10:30:59;;;;;;;21.88;12.40;;;14.10;22.50;;;;;;5094219;28;20038;-54
2022/03/13 10:33:27;;;;;;;26.77;13.25;;;14.70;23.00;;;;;;5094042;28;20032;-54
2022/03/13 10:36:14;;;;;;;18.80;11.23;;;15.30;23.00;;;;;;5094564;28;20382;-54
2022/03/13 10:38:41;;;;;;;22.70;13.23;;;15.20;22.00;;;;;;5097079;28;20054;-54
2022/03/13 10:41:12;;;;;;;25.52;15.00;;;15.10;21.80;;;;;;5098386;28;20036;-54
2022/03/13 10:43:46;;;;;;;;;;;15.40;22.90;;;;;;5098732;28;20028;-54
2022/03/13 10:46:39;;;;;;;25.42;13.23;;;15.30;22.00;;;;;;5098207;28;19912;-54
2022/03/13 10:49:08;;;;;;;23.70;11.80;;;16.40;21.60;;;;;;5094008;28;20044;-54
2022/03/13 10:51:36;;;;;;;26.45;12.95;;;16.00;20.40;;;;;;5098191;28;20031;-54
2022/03/13 10:54:04;;;;;;;21.42;12.20;;;16.00;20.40;;;;;;5098237;28;20093;-54
2022/03/13 10:56:30;;;;;;;19.70;12.48;;;14.70;19.90;;;;;;5098035;28;20478;-54
2022/03/13 10:58:57;;;;;;;19.67;13.23;;;15.30;20.60;;;;;;5098012;28;20024;-54
2022/03/13 11:01:25;;;;;;;24.23;12.52;;;15.30;20.90;;;;;;5098084;28;20508;-54
2022/03/13 11:04:05;;;;;;;23.40;13.57;;;15.30;20.90;;;;;;5098162;28;20036;-54
2022/03/13 11:06:31;;;;;;;19.48;12.23;;;15.20;21.00;;;;;;5097837;28;20028;-54
2022/03/13 11:08:57;;;;;;;20.17;13.00;;;15.10;20.80;;;;;;5096535;28;20409;-54
2022/03/13 11:11:27;;;;;;;19.73;11.63;;;15.80;21.30;;;;;;5077604;28;20032;-54
2022/03/13 11:13:59;;;;;;;18.70;11.27;;;16.30;20.30;;;;;;5077305;28;20028;-54
2022/03/13 11:16:32;;;;;;;21.50;11.35;;;16.30;19.70;;;;;;5077302;28;20139;-54
2022/03/13 11:19:07;;;;;;;20.98;11.95;;;16.50;19.20;;;;;;5077259;28;20445;-54
2022/03/13 11:21:33;;;;;;;27.40;13.05;;;16.80;19.40;;;;;;5077358;28;20084;-54
2022/03/13 11:24:03;;;;;;;21.55;12.52;;;16.70;18.60;;;;;;5077338;28;20039;-54
2022/03/13 11:26:30;;;;;;;28.27;13.00;;;16.60;18.70;;;;;;5077255;28;20024;-54
2022/03/13 11:28:58;;;;;;;21.80;12.32;;;16.90;18.90;;;;;;5076948;28;20106;-54
2022/03/13 11:31:34;;;;;;;23.63;12.35;;;16.80;18.80;;;;;;5076852;28;20036;-54
2022/03/13 11:34:22;;;;;;;33.60;16.35;;;16.30;18.60;;;;;;5077164;28;20355;-54
2022/03/13 11:36:51;;;;;;;20.50;12.45;;;16.40;19.50;;;;;;5076935;28;20031;-54
2022/03/13 11:39:24;;;;;;;20.10;12.35;;;16.40;19.30;;;;;;5076946;28;20032;-54
2022/03/13 11:41:50;;;;;;;23.63;12.88;;;16.40;19.00;;;;;;5076953;28;20036;-54
2022/03/13 11:44:21;;;;;;;22.17;13.18;;;16.90;18.80;;;;;;5076883;28;20039;-54
2022/03/13 11:46:52;;;;;;;22.85;13.73;;;17.00;18.30;;;;;;5076987;28;20029;-54
2022/03/13 11:49:33;;;;;;;21.33;13.32;;;16.60;18.00;;;;;;5075512;28;20092;-54
2022/03/13 11:52:11;;;;;;;23.45;13.18;;;16.40;18.30;;;;;;5076818;28;20059;-54
2022/03/13 11:57:14;;;;;;;33.13;16.13;;;17.90;19.00;;;;;;5076772;28;20094;-54
2022/03/13 11:59:40;;;;;;;22.98;14.40;;;18.30;18.50;;;;;;5076616;28;20382;-54
2022/03/13 12:02:12;;;;;;;27.42;15.95;;;17.40;17.20;;;;;;5076659;28;20060;-54
2022/03/13 12:04:38;;;;;;;25.42;14.38;;;17.50;17.50;;;;;;5076439;28;20078;-54
2022/03/13 12:07:27;;;;;;;39.78;16.73;;;17.30;17.50;;;;;;5076565;28;20020;-54
2022/03/13 12:09:53;;;;;;;27.92;14.30;;;17.90;17.70;;;;;;5076190;28;20453;-54
2022/03/13 12:12:20;;;;;;;22.33;12.70;;;18.30;17.40;;;;;;5076358;28;20017;-54
2022/03/13 12:15:02;;;;;;;29.90;14.30;;;17.80;17.30;;;;;;5076306;28;20024;-54
2022/03/13 12:17:47;;;;;;;24.58;14.38;;;16.50;16.50;;;;;;5076246;28;20029;-54
2022/03/13 12:20:26;;;;;;;25.63;14.32;;;16.30;16.90;;;;;;5076205;28;20032;-54
2022/03/13 12:22:57;;;;;;;20.88;13.15;;;16.70;17.00;;;;;;5076178;28;20040;-54
2022/03/13 12:25:25;;;;;;;24.92;13.27;;;16.90;16.60;;;;;;5076167;28;20053;-54
2022/03/13 12:27:51;;;;;;;25.35;12.93;;;16.50;16.60;;;;;;5075977;28;20040;-54